createdAt,value
2019-02-12T00:00:08.176Z,30.60
2019-02-12T00:02:38.487Z,29.03
2019-02-12T00:05:06.969Z,32.93
2019-02-12T00:07:35.769Z,32.60
2019-02-12T00:10:06.387Z,28.92
2019-02-12T00:12:35.221Z,25.37
2019-02-12T00:15:03.989Z,21.95
2019-02-12T00:17:32.855Z,20.83
2019-02-12T00:20:01.631Z,20.30
2019-02-12T00:22:30.424Z,20.27
2019-02-12T00:24:59.211Z,20.77
2019-02-12T00:27:27.999Z,20.10
2019-02-12T00:29:56.788Z,20.47
2019-02-12T00:32:25.571Z,18.73
2019-02-12T00:34:54.784Z,20.23
2019-02-12T00:37:24.493Z,17.30
2019-02-12T00:39:53.253Z,19.50
2019-02-12T00:42:22.153Z,16.97
2019-02-12T00:44:50.940Z,16.57
2019-02-12T00:47:20.743Z,17.17
2019-02-12T00:49:49.530Z,16.90
2019-02-12T00:52:18.322Z,15.95
2019-02-12T00:55:06.311Z,15.43
2019-02-12T00:57:35.034Z,15.37
2019-02-12T01:00:07.713Z,17.73
2019-02-12T01:02:36.506Z,15.63
2019-02-12T01:05:06.420Z,15.98
2019-02-12T01:07:35.632Z,18.60
2019-02-12T01:10:07.575Z,17.10
2019-02-12T01:12:36.562Z,16.43
2019-02-12T01:15:07.811Z,17.60
2019-02-12T01:17:36.721Z,16.80
2019-02-12T01:20:07.744Z,16.67
2019-02-12T01:22:36.323Z,16.40
2019-02-12T01:25:06.720Z,16.70
2019-02-12T01:27:35.547Z,16.47
2019-02-12T01:30:09.542Z,15.48
2019-02-12T01:32:38.637Z,16.97
2019-02-12T01:35:07.114Z,20.47
2019-02-12T01:37:37.027Z,19.80
2019-02-12T01:40:08.170Z,19.02
2019-02-12T01:42:37.263Z,20.35
2019-02-12T01:45:07.991Z,18.00
2019-02-12T01:47:36.785Z,17.37
2019-02-12T01:50:07.739Z,16.27
2019-02-12T01:52:36.628Z,16.47
2019-02-12T01:55:06.674Z,17.48
2019-02-12T01:57:35.203Z,18.00
2019-02-12T02:00:05.018Z,18.27
2019-02-12T02:02:35.053Z,17.80
2019-02-12T02:05:04.231Z,17.67
2019-02-12T02:07:33.011Z,16.83
2019-02-12T02:10:01.809Z,16.27
2019-02-12T02:12:30.816Z,15.90
2019-02-12T02:15:08.358Z,18.57
2019-02-12T02:17:37.073Z,19.30
2019-02-12T02:20:09.955Z,19.55
2019-02-12T02:22:39.058Z,20.62
2019-02-12T02:25:09.058Z,19.40
2019-02-12T02:27:37.848Z,22.07
2019-02-12T02:30:07.967Z,26.00
2019-02-12T02:32:36.754Z,25.57
2019-02-12T02:35:06.381Z,22.80
2019-02-12T02:37:34.865Z,20.65
2019-02-12T02:40:05.487Z,20.63
2019-02-12T02:42:34.579Z,21.15
2019-02-12T02:45:03.343Z,22.00
2019-02-12T02:47:33.412Z,20.70
2019-02-12T02:50:03.443Z,18.47
2019-02-12T02:52:32.308Z,17.60
2019-02-12T02:57:50.934Z,17.70
2019-02-12T03:03:08.583Z,17.03
2019-02-12T03:05:37.780Z,16.50
2019-02-12T03:08:06.255Z,17.30
2019-02-12T03:10:35.042Z,16.03
2019-02-12T03:13:03.952Z,16.00
2019-02-12T03:15:32.729Z,15.73
2019-02-12T03:18:01.734Z,16.37
2019-02-12T03:20:30.618Z,15.67
2019-02-12T03:22:59.388Z,15.90
2019-02-12T03:25:28.171Z,15.13
2019-02-12T03:27:56.960Z,14.77
2019-02-12T03:30:25.752Z,14.53
2019-02-12T03:35:44.411Z,14.97
2019-02-12T03:38:13.218Z,14.60
2019-02-12T03:40:41.993Z,14.93
2019-02-12T03:43:10.587Z,15.25
2019-02-12T03:45:39.461Z,21.30
2019-02-12T03:48:07.971Z,23.23
2019-02-12T03:50:36.728Z,22.43
2019-02-12T03:53:06.042Z,16.50
2019-02-12T03:55:35.346Z,15.10
2019-02-12T03:58:04.332Z,16.67
2019-02-12T04:00:33.216Z,18.27
2019-02-12T04:03:05.486Z,19.10
2019-02-12T04:05:34.872Z,19.50
2019-02-12T04:08:04.284Z,15.65
2019-02-12T04:10:33.489Z,14.55
2019-02-12T04:13:02.263Z,15.13
2019-02-12T04:15:31.373Z,16.90
2019-02-12T04:18:00.139Z,15.27
2019-02-12T04:20:29.331Z,13.75
2019-02-12T04:22:58.125Z,13.70
2019-02-12T04:25:27.213Z,13.45
2019-02-12T04:27:57.944Z,14.13
2019-02-12T04:30:26.730Z,14.27
2019-02-12T04:32:56.334Z,14.70
2019-02-12T04:35:25.118Z,13.43
2019-02-12T04:37:55.772Z,13.87
2019-02-12T04:40:24.233Z,14.30
2019-02-12T04:42:53.021Z,16.00
2019-02-12T04:45:21.911Z,15.00
2019-02-12T04:47:50.703Z,14.03
2019-02-12T04:50:19.172Z,13.40
2019-02-12T04:52:47.966Z,11.40
2019-02-12T04:55:16.666Z,11.97
2019-02-12T04:57:45.236Z,12.80
2019-02-12T05:00:37.291Z,11.65
2019-02-12T05:02:51.629Z,12.40
2019-02-12T05:05:21.949Z,12.30
2019-02-12T05:07:50.838Z,11.93
2019-02-12T05:10:20.736Z,11.37
2019-02-12T05:12:49.843Z,12.77
2019-02-12T05:15:18.733Z,11.80
2019-02-12T05:17:47.497Z,12.13
2019-02-12T05:20:15.995Z,12.13
2019-02-12T05:22:45.792Z,12.13
2019-02-12T05:25:14.496Z,13.23
2019-02-12T05:27:43.288Z,14.57
2019-02-12T05:30:12.773Z,14.63
2019-02-12T05:32:41.967Z,15.68
2019-02-12T05:35:14.151Z,16.18
2019-02-12T05:37:42.916Z,18.20
2019-02-12T05:40:11.395Z,15.53
2019-02-12T05:42:40.309Z,15.23
2019-02-12T05:45:10.597Z,15.50
2019-02-12T05:47:39.518Z,15.60
2019-02-12T05:50:10.041Z,15.50
2019-02-12T05:52:38.807Z,16.20
2019-02-12T05:55:07.290Z,16.85
2019-02-12T05:57:36.075Z,17.23
2019-02-12T06:00:11.003Z,18.20
2019-02-12T06:02:39.796Z,19.13
2019-02-12T06:05:08.579Z,19.02
2019-02-12T06:07:37.364Z,19.03
2019-02-12T06:10:07.992Z,19.93
2019-02-12T06:12:36.779Z,25.30
2019-02-12T06:15:15.195Z,22.22
2019-02-12T06:17:43.984Z,22.70
2019-02-12T06:20:12.763Z,27.42
2019-02-12T06:22:41.677Z,25.53
2019-02-12T06:25:10.457Z,25.62
2019-02-12T06:27:39.235Z,22.87
2019-02-12T06:30:09.515Z,23.07
2019-02-12T06:32:38.550Z,21.87
2019-02-12T06:35:08.682Z,18.37
2019-02-12T06:37:37.572Z,19.50
2019-02-12T06:40:11.427Z,19.87
2019-02-12T06:42:40.275Z,19.93
2019-02-12T06:45:10.793Z,20.40
2019-02-12T06:47:39.666Z,19.67
2019-02-12T06:50:12.975Z,19.23
2019-02-12T06:52:41.755Z,18.10
2019-02-12T06:55:16.998Z,20.00
2019-02-12T06:57:45.460Z,26.13
2019-02-12T07:00:16.871Z,25.55
2019-02-12T07:03:04.223Z,23.03
2019-02-12T07:05:33.155Z,20.87
2019-02-12T07:08:12.765Z,21.00
2019-02-12T07:10:41.770Z,22.47
2019-02-12T07:13:18.747Z,20.78
2019-02-12T07:15:47.734Z,20.53
2019-02-12T07:18:21.011Z,20.40
2019-02-12T07:20:57.392Z,19.50
2019-02-12T07:25:58.327Z,17.82
2019-02-12T07:28:45.650Z,17.93
2019-02-12T07:31:34.632Z,17.45
2019-02-12T07:34:23.507Z,15.60
2019-02-12T07:37:10.914Z,17.10
2019-02-12T07:39:56.610Z,19.05
2019-02-12T07:42:29.764Z,24.93
2019-02-12T07:45:17.123Z,23.93
2019-02-12T07:50:30.327Z,24.10
2019-02-12T07:53:00.589Z,18.80
2019-02-12T07:55:45.897Z,14.20
2019-02-12T07:58:22.307Z,12.33
2019-02-12T08:00:53.630Z,13.57
2019-02-12T08:03:35.936Z,15.17
2019-02-12T08:06:13.119Z,16.23
2019-02-12T08:09:00.024Z,15.17
2019-02-12T08:11:30.356Z,16.20
2019-02-12T08:14:03.362Z,17.03
2019-02-12T08:16:33.621Z,17.67
2019-02-12T08:19:13.503Z,16.27
2019-02-12T08:21:44.029Z,15.27
2019-02-12T08:24:29.540Z,16.13
2019-02-12T08:27:00.864Z,14.68
2019-02-12T08:29:30.976Z,13.15
2019-02-12T08:32:13.272Z,12.53
2019-02-12T08:34:52.820Z,12.10
2019-02-12T08:37:25.905Z,13.55
2019-02-12T08:40:08.328Z,12.57
2019-02-12T08:42:41.719Z,13.13
2019-02-12T08:45:13.280Z,13.43
2019-02-12T08:47:43.790Z,12.50
2019-02-12T08:50:26.217Z,12.70
2019-02-12T08:52:56.512Z,12.80
2019-02-12T08:55:41.908Z,12.67
2019-02-12T08:58:29.011Z,12.94
2019-02-12T09:00:59.324Z,12.40
2019-02-12T09:03:33.364Z,12.03
2019-02-12T09:06:09.495Z,12.00
2019-02-12T09:08:48.732Z,12.05
2019-02-12T09:11:34.001Z,11.37
2019-02-12T09:14:04.955Z,12.33
2019-02-12T09:16:41.095Z,10.93
2019-02-12T09:19:23.827Z,10.40
2019-02-12T09:22:09.284Z,11.03
2019-02-12T09:24:42.185Z,10.17
2019-02-12T09:27:18.748Z,10.12
2019-02-12T09:30:05.561Z,8.78
2019-02-12T09:32:45.208Z,9.10
2019-02-12T09:35:30.767Z,9.03
2019-02-12T09:38:13.075Z,8.25
2019-02-12T09:40:46.383Z,7.20
2019-02-12T09:43:16.484Z,7.37
2019-02-12T09:45:59.191Z,7.35
2019-02-12T09:48:32.403Z,8.33
2019-02-12T09:51:19.832Z,7.80
2019-02-12T09:54:08.865Z,7.12
2019-02-12T09:56:37.982Z,6.20
2019-02-12T09:59:12.102Z,6.37
2019-02-12T10:01:48.743Z,5.73
2019-02-12T10:04:22.261Z,5.97
2019-02-12T10:06:58.099Z,5.90
2019-02-12T10:09:28.542Z,6.50
2019-02-12T10:11:59.256Z,6.00
2019-02-12T10:14:46.475Z,5.80
2019-02-12T10:17:16.910Z,6.20
2019-02-12T10:19:50.497Z,5.75
2019-02-12T10:22:26.674Z,5.13
2019-02-12T10:27:29.656Z,5.20
2019-02-12T10:30:02.897Z,5.40
2019-02-12T10:32:32.994Z,6.03
2019-02-12T10:35:02.075Z,5.37
2019-02-12T10:37:31.448Z,5.97
2019-02-12T10:40:00.354Z,5.80
2019-02-12T10:42:29.357Z,6.13
2019-02-12T10:44:58.329Z,6.37
2019-02-12T10:47:27.343Z,6.50
2019-02-12T10:49:56.245Z,6.62
2019-02-12T10:52:26.450Z,8.00
2019-02-12T10:54:55.647Z,5.27
2019-02-12T10:57:24.439Z,5.70
2019-02-12T10:59:53.144Z,6.40
2019-02-12T11:02:25.291Z,5.63
2019-02-12T11:04:54.792Z,5.20
2019-02-12T11:07:23.759Z,5.70
2019-02-12T11:09:52.668Z,4.60
2019-02-12T11:12:21.131Z,5.27
2019-02-12T11:14:49.810Z,4.95
2019-02-12T11:17:18.631Z,5.30
2019-02-12T11:19:47.384Z,5.23
2019-02-12T11:22:16.380Z,5.80
2019-02-12T11:24:45.166Z,5.67
2019-02-12T11:27:13.865Z,6.50
2019-02-12T11:29:42.635Z,5.90
2019-02-12T11:32:11.216Z,6.85
2019-02-12T11:34:39.901Z,6.12
2019-02-12T11:37:08.700Z,6.23
2019-02-12T11:39:37.695Z,6.43
2019-02-12T11:42:06.154Z,6.67
2019-02-12T11:44:34.940Z,5.83
2019-02-12T11:47:03.740Z,6.13
2019-02-12T11:49:32.212Z,5.65
2019-02-12T11:52:00.990Z,5.33
2019-02-12T11:54:29.782Z,5.00
2019-02-12T11:56:58.567Z,6.40
2019-02-12T11:59:27.351Z,4.90
2019-02-12T12:01:56.453Z,4.43
2019-02-12T12:04:25.243Z,4.23
2019-02-12T12:06:54.055Z,3.63
2019-02-12T12:09:22.907Z,3.98
2019-02-12T12:11:51.387Z,4.45
2019-02-12T12:14:19.870Z,3.60
2019-02-12T12:16:48.659Z,4.43
2019-02-12T12:19:17.438Z,3.67
2019-02-12T12:21:46.227Z,4.70
2019-02-12T12:24:15.036Z,3.70
2019-02-12T12:26:43.826Z,3.70
2019-02-12T12:29:12.514Z,3.37
2019-02-12T12:31:40.972Z,3.98
2019-02-12T12:34:09.750Z,4.08
2019-02-12T12:36:38.745Z,5.20
2019-02-12T12:39:07.327Z,3.67
2019-02-12T12:41:36.122Z,2.40
2019-02-12T12:44:06.143Z,2.56
2019-02-12T12:46:36.416Z,2.20
2019-02-12T12:49:06.398Z,2.28
2019-02-12T12:51:35.283Z,2.47
2019-02-12T12:54:04.471Z,2.30
2019-02-12T12:56:33.059Z,3.05
2019-02-12T12:59:01.774Z,3.30
2019-02-12T13:01:30.503Z,2.90
2019-02-12T13:03:59.291Z,2.80
2019-02-12T13:06:28.079Z,2.20
2019-02-12T13:08:57.191Z,2.23
2019-02-12T13:11:26.745Z,2.40
2019-02-12T13:13:56.508Z,2.35
2019-02-12T13:16:25.294Z,2.57
2019-02-12T13:18:54.185Z,2.90
2019-02-12T13:21:23.052Z,2.57
2019-02-12T13:23:52.881Z,2.70
2019-02-12T13:26:22.370Z,2.20
2019-02-12T13:28:51.258Z,3.07
2019-02-12T13:31:19.819Z,2.60
2019-02-12T13:33:48.628Z,2.30
2019-02-12T13:36:17.405Z,2.03
2019-02-12T13:38:46.195Z,2.60
2019-02-12T13:41:14.984Z,1.83
2019-02-12T13:43:43.773Z,2.42
2019-02-12T13:46:12.456Z,2.30
2019-02-12T13:48:41.290Z,2.77
2019-02-12T13:51:10.362Z,2.12
2019-02-12T13:53:39.663Z,2.13
2019-02-12T13:56:11.035Z,2.20
2019-02-12T13:58:39.567Z,2.00
2019-02-12T14:01:08.050Z,2.20
2019-02-12T14:03:36.877Z,2.37
2019-02-12T14:06:06.435Z,2.70
2019-02-12T14:08:35.116Z,2.60
2019-02-12T14:11:03.602Z,2.77
2019-02-12T14:13:32.378Z,2.00
2019-02-12T14:16:00.865Z,2.12
2019-02-12T14:18:29.457Z,2.20
2019-02-12T14:20:57.922Z,2.50
2019-02-12T14:23:27.493Z,1.70
2019-02-12T14:25:56.869Z,2.22
2019-02-12T14:28:25.623Z,2.00
2019-02-12T14:30:54.892Z,3.43
2019-02-12T14:33:23.329Z,2.43
2019-02-12T14:35:52.190Z,2.55
2019-02-12T14:38:20.658Z,2.33
2019-02-12T14:40:49.456Z,1.90
2019-02-12T14:43:17.930Z,1.90
2019-02-12T14:45:46.712Z,2.10
2019-02-12T14:48:15.190Z,2.33
2019-02-12T14:50:44.194Z,2.10
2019-02-12T14:53:12.672Z,1.90
2019-02-12T14:55:41.985Z,2.00
2019-02-12T14:58:10.750Z,2.67
2019-02-12T15:00:39.642Z,1.98
2019-02-12T15:03:08.337Z,2.47
2019-02-12T15:05:37.116Z,2.10
2019-02-12T15:08:06.737Z,2.52
2019-02-12T15:10:35.706Z,2.33
2019-02-12T15:13:05.876Z,3.66
2019-02-12T15:15:34.922Z,2.20
2019-02-12T15:18:03.718Z,2.60
2019-02-12T15:20:32.500Z,2.83
2019-02-12T15:23:01.388Z,2.67
2019-02-12T15:25:30.477Z,2.22
2019-02-12T15:27:59.387Z,2.80
2019-02-12T15:30:28.153Z,2.07
2019-02-12T15:32:57.144Z,2.10
2019-02-12T15:35:26.056Z,3.20
2019-02-12T15:37:55.557Z,3.15
2019-02-12T15:40:24.021Z,2.50
2019-02-12T15:42:52.927Z,2.53
2019-02-12T15:45:24.353Z,2.12
2019-02-12T15:47:53.365Z,2.57
2019-02-12T15:50:22.230Z,2.20
2019-02-12T15:52:51.119Z,2.45
2019-02-12T15:55:20.012Z,2.40
2019-02-12T15:57:48.735Z,2.60
2019-02-12T16:00:20.996Z,2.40
2019-02-12T16:02:49.456Z,2.50
2019-02-12T16:05:18.032Z,2.57
2019-02-12T16:07:47.582Z,2.45
2019-02-12T16:10:19.851Z,2.73
2019-02-12T16:12:51.349Z,2.53
2019-02-12T16:15:23.902Z,2.05
2019-02-12T16:17:50.567Z,2.22
2019-02-12T16:20:19.140Z,2.70
2019-02-12T16:22:47.654Z,2.45
2019-02-12T16:25:16.099Z,2.83
2019-02-12T16:27:44.796Z,3.00
2019-02-12T16:30:17.894Z,2.90
2019-02-12T16:32:46.365Z,2.27
2019-02-12T16:35:15.696Z,2.50
2019-02-12T16:37:44.146Z,2.62
2019-02-12T16:40:13.761Z,2.50
2019-02-12T16:42:42.522Z,2.53
2019-02-12T16:45:12.543Z,2.47
2019-02-12T16:47:41.755Z,5.80
2019-02-12T16:50:10.320Z,7.75
2019-02-12T16:52:40.202Z,8.80
2019-02-12T16:55:10.051Z,6.78
2019-02-12T16:57:38.834Z,5.93
2019-02-12T17:00:17.143Z,4.72
2019-02-12T17:02:46.844Z,7.15
2019-02-12T17:05:15.743Z,5.40
2019-02-12T17:07:45.123Z,5.67
2019-02-12T17:10:16.695Z,5.10
2019-02-12T17:12:45.473Z,4.67
2019-02-12T17:15:14.077Z,8.60
2019-02-12T17:17:42.849Z,21.17
2019-02-12T17:20:15.848Z,10.77
2019-02-12T17:22:46.053Z,8.00
2019-02-12T17:25:14.756Z,6.17
2019-02-12T17:27:43.625Z,4.35
2019-02-12T17:30:13.230Z,6.27
2019-02-12T17:32:43.256Z,8.50
2019-02-12T17:35:11.726Z,11.13
2019-02-12T17:37:40.755Z,11.80
2019-02-12T17:40:16.157Z,11.50
2019-02-12T17:42:44.648Z,8.53
2019-02-12T17:45:15.081Z,10.00
2019-02-12T17:47:43.645Z,7.55
2019-02-12T17:50:13.048Z,4.57
2019-02-12T17:52:42.867Z,5.60
2019-02-12T17:55:11.957Z,10.88
2019-02-12T17:57:41.372Z,19.30
2019-02-12T18:00:18.850Z,18.23
2019-02-12T18:02:49.168Z,16.40
2019-02-12T18:05:18.778Z,18.57
2019-02-12T18:07:47.656Z,20.33
2019-02-12T18:10:18.621Z,21.60
2019-02-12T18:12:47.075Z,25.02
2019-02-12T18:15:15.984Z,22.70
2019-02-12T18:17:44.873Z,23.70
2019-02-12T18:20:14.264Z,23.43
2019-02-12T18:22:43.353Z,20.43
2019-02-12T18:25:12.129Z,20.90
2019-02-12T18:27:41.233Z,19.90
2019-02-12T18:30:16.102Z,22.56
2019-02-12T18:32:44.850Z,23.43
2019-02-12T18:35:13.630Z,24.57
2019-02-12T18:37:42.519Z,27.98
2019-02-12T18:40:12.146Z,30.07
2019-02-12T18:42:40.709Z,40.90
2019-02-12T18:45:10.724Z,42.53
2019-02-12T18:47:39.516Z,41.73
2019-02-12T18:50:09.223Z,40.57
2019-02-12T18:52:38.023Z,45.67
2019-02-12T18:55:08.344Z,54.57
2019-02-12T18:57:37.122Z,54.57
2019-02-12T19:00:10.917Z,43.70
2019-02-12T19:02:39.707Z,42.67
2019-02-12T19:05:09.128Z,62.93
2019-02-12T19:07:37.894Z,53.67
2019-02-12T19:10:08.014Z,50.17
2019-02-12T19:12:37.519Z,55.98
2019-02-12T19:15:08.160Z,47.70
2019-02-12T19:17:37.271Z,37.07
2019-02-12T19:20:08.334Z,33.58
2019-02-12T19:22:37.298Z,29.90
2019-02-12T19:25:09.660Z,37.28
2019-02-12T19:27:38.427Z,39.17
2019-02-12T19:30:08.652Z,62.53
2019-02-12T19:32:37.704Z,66.12
2019-02-12T19:35:07.897Z,48.73
2019-02-12T19:37:38.590Z,32.33
2019-02-12T19:40:08.277Z,27.67
2019-02-12T19:42:37.582Z,27.32
2019-02-12T19:45:13.216Z,25.37
2019-02-12T19:47:42.050Z,28.07
2019-02-12T19:50:11.057Z,35.30
2019-02-12T19:52:42.088Z,47.40
2019-02-12T19:55:11.068Z,43.42
2019-02-12T19:57:40.109Z,30.67
2019-02-12T20:00:17.224Z,35.68
2019-02-12T20:02:47.139Z,45.93
2019-02-12T20:05:16.300Z,51.17
2019-02-12T20:07:45.367Z,44.53
2019-02-12T20:10:14.658Z,37.93
2019-02-12T20:12:43.937Z,31.25
2019-02-12T20:15:22.139Z,23.87
2019-02-12T20:17:51.330Z,24.57
2019-02-12T20:20:20.189Z,28.40
2019-02-12T20:22:48.722Z,30.27
2019-02-12T20:25:17.390Z,29.37
2019-02-12T20:27:46.206Z,26.77
2019-02-12T20:30:16.106Z,31.68
2019-02-12T20:32:45.201Z,37.83
2019-02-12T20:35:15.085Z,39.47
2019-02-12T20:37:45.134Z,37.73
2019-02-12T20:40:14.532Z,31.67
2019-02-12T20:42:43.604Z,27.87
2019-02-12T20:45:16.445Z,26.80
2019-02-12T20:47:45.176Z,27.77
2019-02-12T20:50:18.090Z,27.67
2019-02-12T20:52:47.691Z,27.35
2019-02-12T20:55:16.374Z,27.97
2019-02-12T20:57:45.336Z,28.20
2019-02-12T21:00:19.464Z,28.13
2019-02-12T21:02:49.165Z,27.07
2019-02-12T21:05:18.275Z,26.73
2019-02-12T21:07:47.141Z,25.90
2019-02-12T21:10:16.952Z,27.10
2019-02-12T21:12:46.253Z,30.15
2019-02-12T21:15:16.311Z,29.60
2019-02-12T21:17:45.157Z,26.67
2019-02-12T21:20:14.823Z,22.20
2019-02-12T21:22:43.891Z,21.27
2019-02-12T21:25:13.282Z,21.30
2019-02-12T21:27:42.164Z,21.27
2019-02-12T21:30:15.527Z,22.53
2019-02-12T21:32:44.319Z,21.63
2019-02-12T21:35:13.341Z,22.50
2019-02-12T21:37:42.415Z,22.90
2019-02-12T21:40:12.633Z,24.03
2019-02-12T21:42:41.424Z,22.37
2019-02-12T21:45:12.802Z,20.90
2019-02-12T21:47:42.067Z,28.33
2019-02-12T21:50:11.378Z,37.54
2019-02-12T21:52:41.172Z,35.83
2019-02-12T21:55:16.601Z,34.30
2019-02-12T21:57:45.098Z,27.80
2019-02-12T22:00:34.669Z,20.53
2019-02-12T22:03:03.472Z,16.00
2019-02-12T22:05:32.245Z,15.93
2019-02-12T22:08:01.028Z,14.20
2019-02-12T22:10:30.226Z,14.47
2019-02-12T22:12:59.014Z,15.17
2019-02-12T22:15:27.812Z,17.53
2019-02-12T22:17:57.000Z,21.95
2019-02-12T22:20:25.784Z,23.57
2019-02-12T22:22:55.919Z,26.23
2019-02-12T22:25:24.586Z,27.50
2019-02-12T22:27:53.363Z,26.70
2019-02-12T22:30:22.770Z,25.57
2019-02-12T22:32:51.558Z,23.33
2019-02-12T22:35:20.347Z,21.77
2019-02-12T22:37:49.134Z,20.13
2019-02-12T22:40:17.923Z,17.53
2019-02-12T22:42:47.726Z,19.07
2019-02-12T22:45:19.992Z,18.37
2019-02-12T22:47:48.782Z,24.43
2019-02-12T22:50:18.691Z,36.23
2019-02-12T22:52:47.478Z,33.70
2019-02-12T22:55:15.959Z,30.00
2019-02-12T22:57:49.402Z,30.93
2019-02-12T23:00:17.886Z,36.17
2019-02-12T23:02:48.176Z,36.17
2019-02-12T23:05:16.640Z,38.13
2019-02-12T23:07:45.426Z,35.43
2019-02-12T23:10:14.212Z,37.05
2019-02-12T23:12:42.998Z,37.97
2019-02-12T23:15:11.478Z,36.53
2019-02-12T23:17:40.262Z,39.57
2019-02-12T23:20:09.185Z,37.63
2019-02-12T23:22:39.225Z,42.90
2019-02-12T23:25:08.178Z,44.00
2019-02-12T23:27:38.075Z,46.13
2019-02-12T23:30:08.361Z,44.87
2019-02-12T23:32:37.080Z,42.03
2019-02-12T23:35:06.496Z,42.08
2019-02-12T23:37:35.268Z,42.60
2019-02-12T23:40:04.571Z,38.50
2019-02-12T23:42:33.349Z,31.37
2019-02-12T23:45:02.140Z,28.87
2019-02-12T23:47:31.386Z,28.70
2019-02-12T23:50:09.547Z,29.47
2019-02-12T23:52:38.018Z,33.30
2019-02-12T23:55:07.264Z,27.10
2019-02-12T23:57:35.998Z,27.07
